Time,TemperatureF,DewpointF,PressureIn,WindDirection,WindDirectionDegrees,WindSpeedMPH,WindSpeedGustMPH,Humidity,HourlyPrecipIn,Conditions,Clouds,dailyrainin,SolarRadiationWatts/m^2,SoftwareType,DateUTC
2013-11-22 00:01:00,10.0,3.4,30.70,SSW,205,7.0,12.0,74,0.00,,CLR,0.00,0.00,VWS V14.00,2013-11-22 06:01:00,
2013-11-22 00:06:00,10.2,3.0,30.70,SSW,207,7.0,14.0,72,0.00,,CLR,0.00,0.00,VWS V14.00,2013-11-22 06:06:00,
2013-11-22 00:11:00,10.3,3.1,30.69,SSW,200,8.0,14.0,72,0.00,,CLR,0.00,0.00,VWS V14.00,2013-11-22 06:11:00,
2013-11-22 00:16:00,10.2,3.0,30.69,SSW,197,9.0,14.0,72,0.00,,CLR,0.00,0.00,VWS V14.00,2013-11-22 06:16:00,
2013-11-22 00:21:00,10.4,3.2,30.69,SSW,198,10.0,14.0,72,0.00,,CLR,0.00,0.00,VWS V14.00,2013-11-22 06:21:00,
2013-11-22 00:26:00,10.6,3.4,30.68,SSW,200,11.0,14.0,72,0.00,,CLR,0.00,0.00,VWS V14.00,2013-11-22 06:26:00,
2013-11-22 00:31:00,10.6,3.1,30.68,SSW,195,15.0,15.0,71,0.00,,CLR,0.00,0.00,VWS V14.00,2013-11-22 06:31:00,
2013-11-22 00:37:00,10.8,3.3,30.68,SSW,195,9.0,16.0,71,0.00,,CLR,0.00,0.00,VWS V14.00,2013-11-22 06:37:00,
2013-11-22 00:42:00,10.9,3.4,30.68,SSW,200,9.0,16.0,71,0.00,,CLR,0.00,0.00,VWS V14.00,2013-11-22 06:42:00,
2013-11-22 00:47:00,11.0,3.5,30.68,SSW,201,9.0,16.0,71,0.00,,CLR,0.00,0.00,VWS V14.00,2013-11-22 06:47:00,
2013-11-22 00:52:00,10.9,3.4,30.68,SSW,204,7.0,16.0,71,0.00,,CLR,0.00,0.00,VWS V14.00,2013-11-22 06:52:00,
2013-11-22 00:57:00,10.4,2.9,30.67,SSW,198,10.0,16.0,71,0.00,,CLR,0.00,0.00,VWS V14.00,2013-11-22 06:57:00,
2013-11-22 01:02:00,9.9,2.7,30.67,SSW,199,7.0,9.0,72,0.00,,CLR,0.00,0.00,VWS V14.00,2013-11-22 07:02:00,
2013-11-22 01:07:00,9.7,2.8,30.67,SSW,195,7.0,9.0,73,0.00,,CLR,0.00,0.00,VWS V14.00,2013-11-22 07:07:00,
2013-11-22 01:12:00,9.6,2.7,30.67,South,190,8.0,10.0,73,0.00,,CLR,0.00,0.00,VWS V14.00,2013-11-22 07:12:00,
2013-11-22 01:17:00,9.6,2.7,30.67,South,191,6.0,10.0,73,0.00,,CLR,0.00,0.00,VWS V14.00,2013-11-22 07:17:00,
2013-11-22 01:22:00,8.7,1.5,30.67,South,189,5.0,10.0,72,0.00,,CLR,0.00,0.00,VWS V14.00,2013-11-22 07:22:00,
2013-11-22 01:27:00,7.7,0.9,30.67,South,189,4.0,10.0,73,0.00,,CLR,0.00,0.00,VWS V14.00,2013-11-22 07:27:00,
2013-11-22 01:32:00,6.7,0.2,30.66,South,187,4.0,6.0,74,0.00,,CLR,0.00,0.00,VWS V14.00,2013-11-22 07:32:00,
2013-11-22 01:37:00,6.3,0.4,30.66,South,187,2.0,6.0,76,0.00,,CLR,0.00,0.00,VWS V14.00,2013-11-22 07:37:00,
2013-11-22 01:42:00,6.0,0.3,30.66,South,187,3.0,6.0,77,0.00,,CLR,0.00,0.00,VWS V14.00,2013-11-22 07:42:00,
2013-11-22 01:47:00,6.2,0.8,30.66,South,186,4.0,7.0,78,0.00,,CLR,0.00,0.00,VWS V14.00,2013-11-22 07:47:00,
2013-11-22 01:52:00,6.8,1.4,30.66,South,188,6.0,7.0,78,0.00,,CLR,0.00,0.00,VWS V14.00,2013-11-22 07:52:00,
2013-11-22 01:57:00,7.6,2.2,30.65,SSW,193,8.0,9.0,78,0.00,,CLR,0.00,0.00,VWS V14.00,2013-11-22 07:57:00,
2013-11-22 02:02:00,8.5,2.8,30.65,SSW,195,6.0,9.0,77,0.00,,CLR,0.00,0.00,VWS V14.00,2013-11-22 08:02:00,
2013-11-22 02:07:00,9.3,3.6,30.65,SSW,202,8.0,10.0,77,0.00,,CLR,0.00,0.00,VWS V14.00,2013-11-22 08:07:00,
2013-11-22 02:12:00,10.6,4.5,30.65,SSW,205,8.0,10.0,76,0.00,,CLR,0.00,0.00,VWS V14.00,2013-11-22 08:12:00,
2013-11-22 02:17:00,11.2,4.5,30.65,SSW,213,7.0,10.0,74,0.00,,CLR,0.00,0.00,VWS V14.00,2013-11-22 08:17:00,
2013-11-22 02:22:00,11.4,4.4,30.65,SW,214,6.0,10.0,73,0.00,,CLR,0.00,0.00,VWS V14.00,2013-11-22 08:22:00,
2013-11-22 02:27:00,11.4,4.4,30.65,SW,215,5.0,10.0,73,0.00,,CLR,0.00,0.00,VWS V14.00,2013-11-22 08:27:00,
2013-11-22 02:32:00,11.0,3.8,30.65,SW,215,6.0,7.0,72,0.00,,CLR,0.00,0.00,VWS V14.00,2013-11-22 08:32:00,
2013-11-22 02:37:00,10.4,3.5,30.65,SW,215,4.0,7.0,73,0.00,,CLR,0.00,0.00,VWS V14.00,2013-11-22 08:37:00,
2013-11-22 02:42:00,10.0,3.4,30.64,SW,215,6.0,7.0,74,0.00,,CLR,0.00,0.00,VWS V14.00,2013-11-22 08:42:00,
2013-11-22 02:47:00,9.9,3.6,30.64,SW,215,7.0,10.0,75,0.00,,CLR,0.00,0.00,VWS V14.00,2013-11-22 08:47:00,
2013-11-22 02:52:00,10.5,4.2,30.64,SW,221,7.0,10.0,75,0.00,,CLR,0.00,0.00,VWS V14.00,2013-11-22 08:52:00,
2013-11-22 02:58:00,11.3,4.6,30.64,SW,224,7.0,10.0,74,0.00,,CLR,0.00,0.00,VWS V14.00,2013-11-22 08:58:00,
2013-11-22 03:03:00,11.9,4.9,30.65,SW,230,5.0,10.0,73,0.00,,CLR,0.00,0.00,VWS V14.00,2013-11-22 09:03:00,
2013-11-22 03:08:00,11.5,4.2,30.65,WSW,246,4.0,10.0,72,0.00,,CLR,0.00,0.00,VWS V14.00,2013-11-22 09:08:00,
2013-11-22 03:13:00,11.3,4.3,30.64,WSW,246,4.0,10.0,73,0.00,,CLR,0.00,0.00,VWS V14.00,2013-11-22 09:13:00,
2013-11-22 03:18:00,11.4,4.4,30.64,WSW,246,5.0,10.0,73,0.00,,CLR,0.00,0.00,VWS V14.00,2013-11-22 09:18:00,
2013-11-22 03:23:00,11.2,4.2,30.64,SW,234,6.0,10.0,73,0.00,,CLR,0.00,0.00,VWS V14.00,2013-11-22 09:23:00,
2013-11-22 03:28:00,11.6,4.9,30.64,SW,231,6.0,11.0,74,0.00,,CLR,0.00,0.00,VWS V14.00,2013-11-22 09:28:00,
2013-11-22 03:33:00,12.3,5.0,30.63,SW,229,11.0,13.0,72,0.00,,CLR,0.00,0.00,VWS V14.00,2013-11-22 09:33:00,
2013-11-22 03:38:00,12.3,5.3,30.63,SW,225,11.0,13.0,73,0.00,,CLR,0.00,0.00,VWS V14.00,2013-11-22 09:38:00,
2013-11-22 03:43:00,12.6,5.3,30.62,SW,221,10.0,13.0,72,0.00,,CLR,0.00,0.00,VWS V14.00,2013-11-22 09:43:00,
2013-11-22 03:48:00,12.4,4.8,30.62,SW,219,12.0,13.0,71,0.00,,CLR,0.00,0.00,VWS V14.00,2013-11-22 09:48:00,
2013-11-22 03:53:00,12.5,5.2,30.62,SW,219,10.0,13.0,72,0.00,,CLR,0.00,0.00,VWS V14.00,2013-11-22 09:53:00,
2013-11-22 03:58:00,12.5,5.2,30.62,SW,219,8.0,13.0,72,0.00,,CLR,0.00,0.00,VWS V14.00,2013-11-22 09:58:00,
2013-11-22 04:03:00,12.7,5.4,30.63,SW,232,10.0,11.0,72,0.00,,CLR,0.00,0.00,VWS V14.00,2013-11-22 10:03:00,
2013-11-22 04:08:00,12.7,5.1,30.62,SW,227,6.0,11.0,71,0.00,,CLR,0.00,0.00,VWS V14.00,2013-11-22 10:08:00,
2013-11-22 04:13:00,12.5,4.9,30.62,SW,232,4.0,11.0,71,0.00,,CLR,0.00,0.00,VWS V14.00,2013-11-22 10:13:00,
2013-11-22 04:18:00,12.2,4.9,30.62,WSW,255,12.0,14.0,72,0.00,,CLR,0.00,0.00,VWS V14.00,2013-11-22 10:18:00,
2013-11-22 04:23:00,12.3,5.0,30.62,WSW,239,12.0,15.0,72,0.00,,CLR,0.00,0.00,VWS V14.00,2013-11-22 10:23:00,
2013-11-22 04:28:00,12.2,4.9,30.63,WSW,251,11.0,15.0,72,0.00,,CLR,0.00,0.00,VWS V14.00,2013-11-22 10:28:00,
2013-11-22 04:33:00,12.1,5.1,30.63,WSW,252,9.0,13.0,73,0.00,,CLR,0.00,0.00,VWS V14.00,2013-11-22 10:33:00,
2013-11-22 04:38:00,11.8,4.8,30.63,West,274,4.0,13.0,73,0.00,,CLR,0.00,0.00,VWS V14.00,2013-11-22 10:38:00,
2013-11-22 04:43:00,11.2,4.2,30.63,West,281,4.0,13.0,73,0.00,,CLR,0.00,0.00,VWS V14.00,2013-11-22 10:43:00,
2013-11-22 04:48:00,10.8,4.2,30.63,WNW,290,5.0,13.0,74,0.00,,CLR,0.00,0.00,VWS V14.00,2013-11-22 10:48:00,
2013-11-22 04:53:00,11.7,5.0,30.63,West,281,11.0,13.0,74,0.00,,CLR,0.00,0.00,VWS V14.00,2013-11-22 10:53:00,
2013-11-22 04:58:00,11.8,4.8,30.63,West,270,6.0,13.0,73,0.00,,CLR,0.00,0.00,VWS V14.00,2013-11-22 10:58:00,
2013-11-22 05:03:00,11.3,4.3,30.63,West,277,8.0,8.0,73,0.00,,CLR,0.00,0.00,VWS V14.00,2013-11-22 11:03:00,
2013-11-22 05:08:00,10.5,3.9,30.63,West,261,9.0,10.0,74,0.00,,CLR,0.00,0.00,VWS V14.00,2013-11-22 11:08:00,
2013-11-22 05:13:00,9.5,3.2,30.63,WSW,251,7.0,10.0,75,0.00,,CLR,0.00,0.00,VWS V14.00,2013-11-22 11:13:00,
2013-11-22 05:18:00,8.8,2.5,30.63,WSW,251,5.0,10.0,75,0.00,,CLR,0.00,0.00,VWS V14.00,2013-11-22 11:18:00,
2013-11-22 05:23:00,8.5,2.8,30.63,WSW,251,3.0,10.0,77,0.00,,CLR,0.00,0.00,VWS V14.00,2013-11-22 11:23:00,
2013-11-22 05:28:00,8.5,3.1,30.64,WSW,251,2.0,10.0,78,0.00,,CLR,0.00,0.00,VWS V14.00,2013-11-22 11:28:00,
2013-11-22 05:33:00,8.6,3.4,30.64,WSW,251,3.0,4.0,79,0.00,,CLR,0.00,0.00,VWS V14.00,2013-11-22 11:33:00,
2013-11-22 05:39:00,8.8,3.4,30.64,WSW,251,4.0,5.0,78,0.00,,CLR,0.00,0.00,VWS V14.00,2013-11-22 11:39:00,
2013-11-22 05:44:00,8.9,3.5,30.64,WSW,251,4.0,5.0,78,0.00,,CLR,0.00,0.00,VWS V14.00,2013-11-22 11:44:00,
2013-11-22 05:49:00,9.0,3.5,30.64,WSW,251,3.0,5.0,78,0.00,,CLR,0.00,0.00,VWS V14.00,2013-11-22 11:49:00,
2013-11-22 05:54:00,9.1,3.7,30.64,WSW,251,3.0,5.0,78,0.00,,CLR,0.00,0.00,VWS V14.00,2013-11-22 11:54:00,
2013-11-22 05:59:00,9.3,3.8,30.64,WSW,251,4.0,5.0,78,0.00,,CLR,0.00,0.00,VWS V14.00,2013-11-22 11:59:00,
2013-11-22 06:04:00,9.1,3.4,30.64,WSW,251,3.0,5.0,77,0.00,,CLR,0.00,0.00,VWS V14.00,2013-11-22 12:04:00,
2013-11-22 06:09:00,9.0,3.5,30.64,WSW,251,1.0,5.0,78,0.00,,CLR,0.00,0.00,VWS V14.00,2013-11-22 12:09:00,
2013-11-22 06:14:00,8.8,3.4,30.64,WSW,251,2.0,5.0,78,0.00,,CLR,0.00,0.00,VWS V14.00,2013-11-22 12:14:00,
2013-11-22 06:19:00,8.6,3.2,30.64,WSW,251,3.0,5.0,78,0.00,,CLR,0.00,0.00,VWS V14.00,2013-11-22 12:19:00,
2013-11-22 06:24:00,8.5,3.3,30.64,WSW,251,3.0,5.0,79,0.00,,CLR,0.00,0.00,VWS V14.00,2013-11-22 12:24:00,
2013-11-22 06:29:00,8.4,3.2,30.64,WSW,251,4.0,5.0,79,0.00,,CLR,0.00,0.00,VWS V14.00,2013-11-22 12:29:00,
2013-11-22 06:34:00,8.3,3.1,30.64,WSW,251,3.0,5.0,79,0.00,,CLR,0.00,0.00,VWS V14.00,2013-11-22 12:34:00,
2013-11-22 06:39:00,8.1,3.0,30.64,WSW,251,3.0,5.0,79,0.00,,CLR,0.00,0.00,VWS V14.00,2013-11-22 12:39:00,
2013-11-22 06:44:00,8.0,2.8,30.64,WSW,251,3.0,5.0,79,0.00,,CLR,0.00,0.00,VWS V14.00,2013-11-22 12:44:00,
2013-11-22 06:49:00,8.2,3.3,30.64,WSW,252,5.0,6.0,80,0.00,,CLR,0.00,0.00,VWS V14.00,2013-11-22 12:49:00,
2013-11-22 06:54:00,8.4,3.5,30.65,West,259,4.0,6.0,80,0.00,,CLR,0.00,0.00,VWS V14.00,2013-11-22 12:54:00,
2013-11-22 06:59:00,8.7,3.5,30.65,West,269,5.0,6.0,79,0.00,,CLR,0.00,0.00,VWS V14.00,2013-11-22 12:59:00,
2013-11-22 07:04:00,8.9,3.7,30.65,West,274,5.0,6.0,79,0.00,,CLR,0.00,0.00,VWS V14.00,2013-11-22 13:04:00,
2013-11-22 07:09:00,9.0,3.5,30.65,West,276,4.0,6.0,78,0.00,,CLR,0.00,0.00,VWS V14.00,2013-11-22 13:09:00,
2013-11-22 07:14:00,9.0,3.5,30.66,West,278,5.0,6.0,78,0.00,,CLR,0.00,0.00,VWS V14.00,2013-11-22 13:14:00,
2013-11-22 07:19:00,8.7,3.3,30.66,West,278,4.0,6.0,78,0.00,,CLR,0.00,0.00,VWS V14.00,2013-11-22 13:19:00,
2013-11-22 07:24:00,8.5,3.1,30.66,West,281,5.0,7.0,78,0.00,,CLR,0.00,0.00,VWS V14.00,2013-11-22 13:24:00,
2013-11-22 07:29:00,8.3,2.9,30.66,WNW,283,4.0,5.0,78,0.00,,CLR,0.00,0.00,VWS V14.00,2013-11-22 13:29:00,
2013-11-22 07:34:00,8.2,3.0,30.66,WNW,284,6.0,6.0,79,0.00,,CLR,0.00,0.00,VWS V14.00,2013-11-22 13:34:00,
2013-11-22 07:39:00,7.9,2.8,30.66,WNW,285,6.0,6.0,79,0.00,,CLR,0.00,0.00,VWS V14.00,2013-11-22 13:39:00,
2013-11-22 07:45:00,7.6,2.5,30.66,WNW,286,6.0,7.0,79,0.00,,CLR,0.00,0.00,VWS V14.00,2013-11-22 13:45:00,
2013-11-22 07:50:00,8.0,3.1,30.66,WNW,287,6.0,7.0,80,0.00,,CLR,0.00,0.00,VWS V14.00,2013-11-22 13:50:00,
2013-11-22 07:55:00,8.2,3.3,30.67,WNW,289,6.0,7.0,80,0.00,,CLR,0.00,5.00,VWS V14.00,2013-11-22 13:55:00,
2013-11-22 08:00:00,8.1,3.2,30.67,WNW,290,6.0,7.0,80,0.00,,CLR,0.00,5.00,VWS V14.00,2013-11-22 14:00:00,
2013-11-22 08:05:00,8.0,2.8,30.67,WNW,290,4.0,7.0,79,0.00,,CLR,0.00,7.00,VWS V14.00,2013-11-22 14:05:00,
2013-11-22 08:10:00,7.7,2.6,30.68,WNW,290,4.0,7.0,79,0.00,,CLR,0.00,9.00,VWS V14.00,2013-11-22 14:10:00,
2013-11-22 08:15:00,7.4,2.5,30.68,WNW,290,5.0,7.0,80,0.00,,CLR,0.00,11.00,VWS V14.00,2013-11-22 14:15:00,
2013-11-22 08:20:00,7.8,3.2,30.68,WNW,290,6.0,7.0,81,0.00,,CLR,0.00,12.00,VWS V14.00,2013-11-22 14:20:00,
2013-11-22 08:25:00,8.0,3.4,30.68,WNW,290,5.0,7.0,81,0.00,,CLR,0.00,18.00,VWS V14.00,2013-11-22 14:25:00,
2013-11-22 08:30:00,8.0,3.1,30.68,WNW,290,6.0,6.0,80,0.00,,CLR,0.00,28.00,VWS V14.00,2013-11-22 14:30:00,
2013-11-22 08:35:00,8.1,3.5,30.69,WNW,290,5.0,6.0,81,0.00,,CLR,0.00,37.00,VWS V14.00,2013-11-22 14:35:00,
2013-11-22 08:40:00,8.4,3.8,30.69,WNW,290,4.0,6.0,81,0.00,,CLR,0.00,42.00,VWS V14.00,2013-11-22 14:40:00,
2013-11-22 08:45:00,8.6,4.0,30.69,WNW,290,4.0,7.0,81,0.00,,CLR,0.00,58.00,VWS V14.00,2013-11-22 14:45:00,
2013-11-22 08:50:00,8.8,4.2,30.69,WNW,290,5.0,7.0,81,0.00,,CLR,0.00,65.00,VWS V14.00,2013-11-22 14:50:00,
2013-11-22 08:55:00,9.2,4.8,30.69,WNW,290,7.0,7.0,82,0.00,,CLR,0.00,60.00,VWS V14.00,2013-11-22 14:55:00,
2013-11-22 09:00:00,9.8,5.2,30.69,WNW,290,4.0,6.0,81,0.00,,CLR,0.00,49.00,VWS V14.00,2013-11-22 15:00:00,
2013-11-22 09:05:00,9.8,5.2,30.70,WNW,290,5.0,6.0,81,0.00,,CLR,0.00,56.00,VWS V14.00,2013-11-22 15:05:00,
2013-11-22 09:10:00,10.1,5.4,30.70,WNW,292,6.0,7.0,81,0.00,,CLR,0.00,62.00,VWS V14.00,2013-11-22 15:10:00,
2013-11-22 09:15:00,10.7,6.0,30.70,WNW,292,6.0,7.0,81,0.00,,CLR,0.00,83.00,VWS V14.00,2013-11-22 15:15:00,
2013-11-22 09:20:00,11.0,6.3,30.70,WNW,296,6.0,9.0,81,0.00,,CLR,0.00,90.00,VWS V14.00,2013-11-22 15:20:00,
2013-11-22 09:25:00,11.7,7.0,30.71,WNW,302,8.0,9.0,81,0.00,,CLR,0.00,91.00,VWS V14.00,2013-11-22 15:25:00,
2013-11-22 09:30:00,12.2,7.5,30.71,NW,311,9.0,12.0,81,0.00,,CLR,0.00,102.00,VWS V14.00,2013-11-22 15:30:00,
2013-11-22 09:35:00,12.7,8.0,30.71,NW,315,10.0,12.0,81,0.00,,CLR,0.00,128.00,VWS V14.00,2013-11-22 15:35:00,
2013-11-22 09:40:00,13.2,8.5,30.72,NW,322,5.0,12.0,81,0.00,,CLR,0.00,114.00,VWS V14.00,2013-11-22 15:40:00,
2013-11-22 09:45:00,13.5,8.8,30.72,NW,322,6.0,12.0,81,0.00,,CLR,0.00,142.00,VWS V14.00,2013-11-22 15:45:00,
2013-11-22 09:50:00,14.1,9.6,30.72,NW,321,7.0,12.0,82,0.00,,CLR,0.00,107.00,VWS V14.00,2013-11-22 15:50:00,
2013-11-22 09:55:00,14.7,9.9,30.73,NW,322,7.0,12.0,81,0.00,,CLR,0.00,98.00,VWS V14.00,2013-11-22 15:55:00,
2013-11-22 10:00:00,15.1,10.6,30.72,NNW,332,12.0,17.0,82,0.00,,CLR,0.00,98.00,VWS V14.00,2013-11-22 16:00:00,
2013-11-22 10:05:00,15.3,10.5,30.73,NNW,338,15.0,18.0,81,0.00,,CLR,0.00,139.00,VWS V14.00,2013-11-22 16:05:00,
2013-11-22 10:11:00,15.6,10.8,30.73,NNW,344,14.0,18.0,81,0.00,,CLR,0.00,169.00,VWS V14.00,2013-11-22 16:11:00,
2013-11-22 10:16:00,15.7,10.9,30.73,NNW,333,13.0,18.0,81,0.00,,CLR,0.00,116.00,VWS V14.00,2013-11-22 16:16:00,
2013-11-22 10:21:00,15.6,10.8,30.73,NNW,343,15.0,19.0,81,0.00,,CLR,0.00,123.00,VWS V14.00,2013-11-22 16:21:00,
2013-11-22 10:26:00,15.5,10.7,30.73,North,355,16.0,19.0,81,0.00,,CLR,0.00,127.00,VWS V14.00,2013-11-22 16:26:00,
2013-11-22 10:31:00,15.5,11.0,30.73,NNW,331,13.0,16.0,82,0.00,,CLR,0.00,95.00,VWS V14.00,2013-11-22 16:31:00,
2013-11-22 10:36:00,15.3,10.8,30.74,NNW,338,8.0,16.0,82,0.00,,CLR,0.00,104.00,VWS V14.00,2013-11-22 16:36:00,
2013-11-22 10:41:00,15.5,11.3,30.74,NNW,334,7.0,16.0,83,0.00,,OVC110,0.00,123.00,VWS V14.00,2013-11-22 16:41:00,
2013-11-22 10:46:00,15.7,11.2,30.74,NNW,338,14.0,16.0,82,0.00,,OVC110,0.00,141.00,VWS V14.00,2013-11-22 16:46:00,
2013-11-22 10:51:00,16.4,12.1,30.74,NNW,336,14.0,17.0,83,0.00,,OVC110,0.00,290.00,VWS V14.00,2013-11-22 16:51:00,
2013-11-22 10:56:00,16.9,12.4,30.74,NNW,346,16.0,17.0,82,0.00,,OVC110,0.00,306.00,VWS V14.00,2013-11-22 16:56:00,
2013-11-22 11:01:00,17.2,12.4,30.75,NNW,335,14.0,17.0,81,0.00,,OVC110,0.00,216.00,VWS V14.00,2013-11-22 17:01:00,
2013-11-22 11:06:00,17.3,12.8,30.75,NNW,343,17.0,17.0,82,0.00,,OVC110,0.00,169.00,VWS V14.00,2013-11-22 17:06:00,
2013-11-22 11:11:00,17.2,12.7,30.75,NNW,339,13.0,19.0,82,0.00,,OVC110,0.00,171.00,VWS V14.00,2013-11-22 17:11:00,
2013-11-22 11:16:00,17.4,12.9,30.75,NNW,339,13.0,19.0,82,0.00,,OVC110,0.00,192.00,VWS V14.00,2013-11-22 17:16:00,
2013-11-22 11:21:00,17.4,12.3,30.75,NNW,333,14.0,20.0,80,0.00,,OVC110,0.00,156.00,VWS V14.00,2013-11-22 17:21:00,
2013-11-22 11:26:00,17.3,12.2,30.76,North,355,15.0,20.0,80,0.00,,OVC110,0.00,153.00,VWS V14.00,2013-11-22 17:26:00,
2013-11-22 11:31:00,17.3,12.5,30.76,NNW,335,14.0,18.0,81,0.00,,OVC110,0.00,153.00,VWS V14.00,2013-11-22 17:31:00,
2013-11-22 11:36:00,17.4,12.6,30.76,NNW,334,14.0,20.0,81,0.00,,OVC110,0.00,160.00,VWS V14.00,2013-11-22 17:36:00,
2013-11-22 11:41:00,17.3,12.5,30.76,NW,323,16.0,20.0,81,0.00,,OVC090,0.00,109.00,VWS V14.00,2013-11-22 17:41:00,
2013-11-22 11:46:00,17.2,12.4,30.76,NNW,342,12.0,22.0,81,0.00,,OVC090,0.00,109.00,VWS V14.00,2013-11-22 17:46:00,
2013-11-22 11:51:00,17.0,12.2,30.76,NNW,335,16.0,22.0,81,0.00,,OVC090,0.00,120.00,VWS V14.00,2013-11-22 17:51:00,
2013-11-22 11:56:00,17.0,11.9,30.76,NNW,332,12.0,22.0,80,0.00,,OVC090,0.00,151.00,VWS V14.00,2013-11-22 17:56:00,
2013-11-22 12:01:00,17.2,12.4,30.76,NNW,340,17.0,19.0,81,0.00,,OVC090,0.00,148.00,VWS V14.00,2013-11-22 18:01:00,
2013-11-22 12:06:00,17.3,12.8,30.76,NNW,333,13.0,20.0,82,0.00,,OVC090,0.00,288.00,VWS V14.00,2013-11-22 18:06:00,
2013-11-22 12:11:00,17.3,12.5,30.77,NNW,333,18.0,20.0,81,0.00,,OVC090,0.00,167.00,VWS V14.00,2013-11-22 18:11:00,
2013-11-22 12:16:00,17.1,12.6,30.77,NNW,338,15.0,21.0,82,0.00,,OVC090,0.00,221.00,VWS V14.00,2013-11-22 18:16:00,
2013-11-22 12:21:00,16.7,11.9,30.77,North,350,18.0,21.0,81,0.00,,OVC090,0.00,272.00,VWS V14.00,2013-11-22 18:21:00,
2013-11-22 12:26:00,17.1,12.3,30.77,North,355,16.0,21.0,81,0.00,,OVC090,0.00,475.00,VWS V14.00,2013-11-22 18:26:00,
2013-11-22 12:31:00,17.2,12.1,30.77,NW,322,17.0,19.0,80,0.00,,OVC090,0.00,413.00,VWS V14.00,2013-11-22 18:31:00,
2013-11-22 12:36:00,17.2,11.5,30.77,North,350,22.0,23.0,78,0.00,,OVC090,0.00,387.00,VWS V14.00,2013-11-22 18:36:00,
2013-11-22 12:41:00,17.3,10.4,30.78,NNW,342,17.0,24.0,74,0.00,,,0.00,397.00,VWS V14.00,2013-11-22 18:41:00,
2013-11-22 12:46:00,17.5,10.0,30.78,North,351,20.0,24.0,72,0.00,,,0.00,374.00,VWS V14.00,2013-11-22 18:46:00,
2013-11-22 12:51:00,17.4,9.6,30.77,NNW,347,20.0,27.0,71,0.00,,,0.00,302.00,VWS V14.00,2013-11-22 18:51:00,
2013-11-22 12:56:00,17.0,9.9,30.78,North,355,19.0,27.0,73,0.00,,,0.00,316.00,VWS V14.00,2013-11-22 18:56:00,
2013-11-22 13:02:00,17.0,10.5,30.78,North,355,12.0,19.0,75,0.00,,,0.00,390.00,VWS V14.00,2013-11-22 19:02:00,
2013-11-22 13:07:00,16.6,10.9,30.78,NNW,344,15.0,23.0,78,0.00,,,0.00,287.00,VWS V14.00,2013-11-22 19:07:00,
2013-11-22 13:12:00,16.6,11.2,30.78,NNW,344,12.0,23.0,79,0.00,,,0.00,214.00,VWS V14.00,2013-11-22 19:12:00,
2013-11-22 13:17:00,16.6,10.9,30.78,North,355,18.0,23.0,78,0.00,,,0.00,274.00,VWS V14.00,2013-11-22 19:17:00,
2013-11-22 13:22:00,16.4,10.2,30.78,NNW,342,13.0,23.0,76,0.00,,,0.00,197.00,VWS V14.00,2013-11-22 19:22:00,
2013-11-22 13:27:00,16.7,10.5,30.78,NNE,17,18.0,23.0,76,0.00,,,0.00,341.00,VWS V14.00,2013-11-22 19:27:00,
2013-11-22 13:32:00,16.4,10.2,30.79,NNW,347,20.0,23.0,76,0.00,,,0.00,355.00,VWS V14.00,2013-11-22 19:32:00,
2013-11-22 13:37:00,15.9,10.0,30.79,North,5,20.0,23.0,77,0.00,,,0.00,246.00,VWS V14.00,2013-11-22 19:37:00,
2013-11-22 13:42:00,15.3,9.4,30.79,NNW,348,17.0,23.0,77,0.00,,OVC065,0.00,304.00,VWS V14.00,2013-11-22 19:42:00,
2013-11-22 13:47:00,15.2,9.9,30.79,NNW,342,19.0,23.0,79,0.00,,OVC065,0.00,309.00,VWS V14.00,2013-11-22 19:47:00,
2013-11-22 13:52:00,15.3,9.7,30.79,North,350,12.0,23.0,78,0.00,,OVC065,0.00,436.00,VWS V14.00,2013-11-22 19:52:00,
2013-11-22 13:57:00,15.6,10.0,30.79,North,355,16.0,23.0,78,0.00,,OVC065,0.00,334.00,VWS V14.00,2013-11-22 19:57:00,
2013-11-22 14:02:00,14.5,8.6,30.80,North,360,17.0,21.0,77,0.00,,OVC065,0.00,227.00,VWS V14.00,2013-11-22 20:02:00,
2013-11-22 14:07:00,13.6,7.7,30.80,North,355,16.0,21.0,77,0.00,,OVC065,0.00,248.00,VWS V14.00,2013-11-22 20:07:00,
2013-11-22 14:12:00,13.6,8.0,30.80,NNW,348,19.0,21.0,78,0.00,,OVC065,0.00,230.00,VWS V14.00,2013-11-22 20:12:00,
2013-11-22 14:17:00,13.2,7.3,30.81,NNW,346,16.0,21.0,77,0.00,,OVC065,0.00,188.00,VWS V14.00,2013-11-22 20:17:00,
2013-11-22 14:22:00,12.6,6.8,30.81,NNW,335,16.0,21.0,77,0.00,,OVC065,0.00,148.00,VWS V14.00,2013-11-22 20:22:00,
2013-11-22 14:27:00,12.1,6.6,30.81,North,355,19.0,21.0,78,0.00,,OVC065,0.00,134.00,VWS V14.00,2013-11-22 20:27:00,
2013-11-22 14:32:00,11.7,5.9,30.81,NNW,346,14.0,20.0,77,0.00,,OVC065,0.00,179.00,VWS V14.00,2013-11-22 20:32:00,
2013-11-22 14:37:00,11.4,5.6,30.82,North,360,15.0,21.0,77,0.00,,OVC065,0.00,125.00,VWS V14.00,2013-11-22 20:37:00,
2013-11-22 14:42:00,11.0,5.2,30.82,North,355,15.0,21.0,77,0.00,,OVC070,0.00,121.00,VWS V14.00,2013-11-22 20:42:00,
2013-11-22 14:47:00,10.8,5.0,30.82,NNW,346,15.0,23.0,77,0.00,,OVC070,0.00,123.00,VWS V14.00,2013-11-22 20:47:00,
2013-11-22 14:52:00,10.2,4.2,30.82,NNW,336,19.0,23.0,76,0.00,,OVC070,0.00,127.00,VWS V14.00,2013-11-22 20:52:00,
2013-11-22 14:57:00,10.1,4.3,30.82,NNW,341,19.0,23.0,77,0.00,,OVC070,0.00,127.00,VWS V14.00,2013-11-22 20:57:00,
2013-11-22 15:02:00,9.8,3.5,30.83,NNW,329,19.0,21.0,75,0.00,,OVC070,0.00,121.00,VWS V14.00,2013-11-22 21:02:00,
2013-11-22 15:07:00,9.5,3.2,30.83,NNW,348,17.0,22.0,75,0.00,,OVC070,0.00,109.00,VWS V14.00,2013-11-22 21:07:00,
2013-11-22 15:12:00,9.4,2.8,30.83,NNW,343,13.0,22.0,74,0.00,,OVC070,0.00,95.00,VWS V14.00,2013-11-22 21:12:00,
2013-11-22 15:17:00,9.4,2.8,30.83,NNW,338,15.0,22.0,74,0.00,,OVC070,0.00,97.00,VWS V14.00,2013-11-22 21:17:00,
2013-11-22 15:22:00,9.1,1.9,30.83,NNW,337,16.0,22.0,72,0.00,,OVC070,0.00,95.00,VWS V14.00,2013-11-22 21:22:00,
2013-11-22 15:27:00,8.8,1.6,30.83,NNW,338,16.0,22.0,72,0.00,,OVC070,0.00,93.00,VWS V14.00,2013-11-22 21:27:00,
2013-11-22 15:32:00,8.5,1.3,30.83,NNW,343,15.0,19.0,72,0.00,,OVC070,0.00,91.00,VWS V14.00,2013-11-22 21:32:00,
2013-11-22 15:37:00,8.1,1.0,30.83,North,355,13.0,21.0,72,0.00,,OVC070,0.00,107.00,VWS V14.00,2013-11-22 21:37:00,
2013-11-22 15:42:00,8.1,0.4,30.83,North,5,13.0,21.0,70,0.00,,OVC100,0.00,93.00,VWS V14.00,2013-11-22 21:42:00,
2013-11-22 15:48:00,7.8,0.1,30.84,North,360,16.0,21.0,70,0.00,,OVC100,0.00,91.00,VWS V14.00,2013-11-22 21:48:00,
2013-11-22 15:53:00,7.3,-0.7,30.84,NNW,344,15.0,21.0,69,0.00,,OVC100,0.00,72.00,VWS V14.00,2013-11-22 21:53:00,
2013-11-22 15:58:00,7.0,-0.7,30.85,NNW,337,12.0,21.0,70,0.00,,OVC100,0.00,69.00,VWS V14.00,2013-11-22 21:58:00,
2013-11-22 16:03:00,6.7,-0.7,30.85,North,355,15.0,20.0,71,0.00,,OVC100,0.00,62.00,VWS V14.00,2013-11-22 22:03:00,
2013-11-22 16:08:00,6.5,-0.9,30.85,NNW,348,10.0,20.0,71,0.00,,OVC100,0.00,53.00,VWS V14.00,2013-11-22 22:08:00,
2013-11-22 16:13:00,6.2,-1.2,30.85,NNW,343,13.0,20.0,71,0.00,,OVC100,0.00,63.00,VWS V14.00,2013-11-22 22:13:00,
2013-11-22 16:18:00,6.3,-1.1,30.85,NNW,348,13.0,20.0,71,0.00,,OVC100,0.00,62.00,VWS V14.00,2013-11-22 22:18:00,
2013-11-22 16:23:00,5.9,-1.8,30.85,NNW,344,16.0,20.0,70,0.00,,OVC100,0.00,30.00,VWS V14.00,2013-11-22 22:23:00,
2013-11-22 16:28:00,5.6,-1.5,30.86,NNW,343,12.0,20.0,72,0.00,,OVC100,0.00,25.00,VWS V14.00,2013-11-22 22:28:00,
2013-11-22 16:33:00,5.2,-1.8,30.86,NNW,338,11.0,16.0,72,0.00,,OVC100,0.00,18.00,VWS V14.00,2013-11-22 22:33:00,
2013-11-22 16:38:00,4.9,-2.1,30.87,NNW,344,8.0,16.0,72,0.00,,OVC100,0.00,16.00,VWS V14.00,2013-11-22 22:38:00,
2013-11-22 16:43:00,4.5,-2.2,30.87,NNW,348,10.0,16.0,73,0.00,,OVC090,0.00,16.00,VWS V14.00,2013-11-22 22:43:00,
2013-11-22 16:48:00,4.3,-2.7,30.87,North,350,9.0,16.0,72,0.00,,OVC090,0.00,12.00,VWS V14.00,2013-11-22 22:48:00,
2013-11-22 16:53:00,3.7,-3.3,30.87,North,349,9.0,16.0,72,0.00,,OVC090,0.00,9.00,VWS V14.00,2013-11-22 22:53:00,
2013-11-22 16:58:00,3.2,-3.8,30.88,NNW,348,8.0,16.0,72,0.00,,OVC090,0.00,7.00,VWS V14.00,2013-11-22 22:58:00,
2013-11-22 17:03:00,2.8,-4.2,30.88,NNW,345,8.0,11.0,72,0.00,,OVC090,0.00,5.00,VWS V14.00,2013-11-22 23:03:00,
2013-11-22 17:08:00,2.6,-4.1,30.88,NNW,342,9.0,14.0,73,0.00,,OVC090,0.00,0.00,VWS V14.00,2013-11-22 23:08:00,
2013-11-22 17:13:00,2.6,-3.8,30.88,NNW,344,9.0,14.0,74,0.00,,OVC090,0.00,0.00,VWS V14.00,2013-11-22 23:13:00,
2013-11-22 17:18:00,2.2,-4.2,30.88,NNW,338,8.0,14.0,74,0.00,,OVC090,0.00,0.00,VWS V14.00,2013-11-22 23:18:00,
2013-11-22 17:23:00,1.9,-4.5,30.89,NNW,333,10.0,14.0,74,0.00,,OVC090,0.00,0.00,VWS V14.00,2013-11-22 23:23:00,
2013-11-22 17:28:00,1.6,-4.5,30.89,NNW,340,9.0,14.0,75,0.00,,OVC090,0.00,0.00,VWS V14.00,2013-11-22 23:28:00,
2013-11-22 17:33:00,1.4,-4.7,30.89,NNW,340,11.0,12.0,75,0.00,,OVC090,0.00,0.00,VWS V14.00,2013-11-22 23:33:00,
2013-11-22 17:38:00,1.1,-4.7,30.90,NNW,342,8.0,12.0,76,0.00,,OVC090,0.00,0.00,VWS V14.00,2013-11-22 23:38:00,
2013-11-22 17:43:00,0.9,-4.9,30.90,NNW,339,9.0,12.0,76,0.00,,CLR,0.00,0.00,VWS V14.00,2013-11-22 23:43:00,
2013-11-22 17:48:00,0.6,-4.9,30.90,NNW,340,4.0,12.0,77,0.00,,CLR,0.00,0.00,VWS V14.00,2013-11-22 23:48:00,
2013-11-22 17:53:00,0.1,-5.4,30.90,NNW,340,4.0,12.0,77,0.00,,CLR,0.00,0.00,VWS V14.00,2013-11-22 23:53:00,
2013-11-22 17:58:00,-0.4,-5.9,30.91,NNW,340,5.0,12.0,77,0.00,,CLR,0.00,0.00,VWS V14.00,2013-11-22 23:58:00,
2013-11-22 18:03:00,-0.8,-6.3,30.91,NNW,340,7.0,8.0,77,0.00,,CLR,0.00,0.00,VWS V14.00,2013-11-23 00:03:00,
2013-11-22 18:08:00,-1.0,-6.2,30.91,NNW,341,7.0,8.0,78,0.00,,CLR,0.00,0.00,VWS V14.00,2013-11-23 00:08:00,
2013-11-22 18:13:00,-1.0,-5.9,30.92,NNW,344,8.0,8.0,79,0.00,,CLR,0.00,0.00,VWS V14.00,2013-11-23 00:13:00,
2013-11-22 18:19:00,-1.0,-5.9,30.92,North,349,8.0,9.0,79,0.00,,CLR,0.00,0.00,VWS V14.00,2013-11-23 00:19:00,
2013-11-22 18:24:00,-0.9,-5.8,30.92,NNW,346,6.0,9.0,79,0.00,,CLR,0.00,0.00,VWS V14.00,2013-11-23 00:24:00,
2013-11-22 18:29:00,-1.0,-5.9,30.92,NNW,346,5.0,9.0,79,0.00,,CLR,0.00,0.00,VWS V14.00,2013-11-23 00:29:00,
2013-11-22 18:34:00,-1.0,-5.9,30.93,NNW,346,5.0,8.0,79,0.00,,CLR,0.00,0.00,VWS V14.00,2013-11-23 00:34:00,
2013-11-22 18:39:00,-0.9,-5.6,30.93,NNW,342,7.0,8.0,80,0.00,,CLR,0.00,0.00,VWS V14.00,2013-11-23 00:39:00,
2013-11-22 18:44:00,-0.7,-5.4,30.93,NNW,339,6.0,8.0,80,0.00,,CLR,0.00,0.00,VWS V14.00,2013-11-23 00:44:00,
2013-11-22 18:49:00,-0.7,-5.4,30.94,NNW,338,5.0,8.0,80,0.00,,CLR,0.00,0.00,VWS V14.00,2013-11-23 00:49:00,
2013-11-22 18:54:00,-1.1,-6.0,30.94,NNW,338,5.0,8.0,79,0.00,,CLR,0.00,0.00,VWS V14.00,2013-11-23 00:54:00,
2013-11-22 18:59:00,-1.1,-5.8,30.94,NNW,338,5.0,8.0,80,0.00,,CLR,0.00,0.00,VWS V14.00,2013-11-23 00:59:00,
2013-11-22 19:04:00,-1.3,-6.2,30.94,NNW,338,6.0,7.0,79,0.00,,CLR,0.00,0.00,VWS V14.00,2013-11-23 01:04:00,
2013-11-22 19:09:00,-1.7,-6.3,30.94,NNW,340,6.0,7.0,80,0.00,,CLR,0.00,0.00,VWS V14.00,2013-11-23 01:09:00,
2013-11-22 19:14:00,-1.8,-6.4,30.94,NNW,340,4.0,7.0,80,0.00,,CLR,0.00,0.00,VWS V14.00,2013-11-23 01:14:00,
2013-11-22 19:19:00,-2.0,-6.6,30.95,NNW,340,2.0,7.0,80,0.00,,CLR,0.00,0.00,VWS V14.00,2013-11-23 01:19:00,
2013-11-22 19:24:00,-2.2,-6.8,30.95,NNW,340,3.0,7.0,80,0.00,,CLR,0.00,0.00,VWS V14.00,2013-11-23 01:24:00,
2013-11-22 19:29:00,-2.5,-7.1,30.95,NNW,340,4.0,7.0,80,0.00,,CLR,0.00,0.00,VWS V14.00,2013-11-23 01:29:00,
2013-11-22 19:34:00,-2.7,-7.1,30.95,NNW,340,4.0,5.0,81,0.00,,CLR,0.00,0.00,VWS V14.00,2013-11-23 01:34:00,
2013-11-22 19:39:00,-2.9,-7.3,30.95,NNW,340,3.0,5.0,81,0.00,,CLR,0.00,0.00,VWS V14.00,2013-11-23 01:39:00,
2013-11-22 19:44:00,-3.1,-7.5,30.95,NNW,340,4.0,5.0,81,0.00,,CLR,0.00,0.00,VWS V14.00,2013-11-23 01:44:00,
2013-11-22 19:49:00,-3.4,-7.8,30.95,NNW,340,5.0,6.0,81,0.00,,CLR,0.00,0.00,VWS V14.00,2013-11-23 01:49:00,
2013-11-22 19:54:00,-3.0,-7.1,30.95,NNW,338,4.0,6.0,82,0.00,,CLR,0.00,0.00,VWS V14.00,2013-11-23 01:54:00,
2013-11-22 19:59:00,-3.0,-7.1,30.96,NNW,338,3.0,6.0,82,0.00,,CLR,0.00,0.00,VWS V14.00,2013-11-23 01:59:00,
2013-11-22 20:04:00,-3.0,-7.1,30.96,NNW,338,4.0,6.0,82,0.00,,CLR,0.00,0.00,VWS V14.00,2013-11-23 02:04:00,
2013-11-22 20:09:00,-3.0,-7.1,30.96,NNW,338,5.0,6.0,82,0.00,,CLR,0.00,0.00,VWS V14.00,2013-11-23 02:09:00,
2013-11-22 20:14:00,-3.2,-7.6,30.96,NNW,338,4.0,6.0,81,0.00,,CLR,0.00,0.00,VWS V14.00,2013-11-23 02:14:00,
2013-11-22 20:19:00,-3.2,-7.3,30.96,NNW,338,2.0,6.0,82,0.00,,CLR,0.00,0.00,VWS V14.00,2013-11-23 02:19:00,
2013-11-22 20:24:00,-3.5,-7.9,30.96,NNW,338,3.0,6.0,81,0.00,,CLR,0.00,0.00,VWS V14.00,2013-11-23 02:24:00,
2013-11-22 20:29:00,-4.1,-8.7,30.96,NNW,338,3.0,3.0,80,0.00,,CLR,0.00,0.00,VWS V14.00,2013-11-23 02:29:00,
2013-11-22 20:34:00,-4.3,-8.6,30.96,NNW,338,3.0,4.0,81,0.00,,CLR,0.00,0.00,VWS V14.00,2013-11-23 02:34:00,
2013-11-22 20:39:00,-4.6,-8.9,30.96,NNW,335,4.0,6.0,81,0.00,,CLR,0.00,0.00,VWS V14.00,2013-11-23 02:39:00,
2013-11-22 20:44:00,-5.0,-9.3,30.96,NNW,332,4.0,6.0,81,0.00,,CLR,0.00,0.00,VWS V14.00,2013-11-23 02:44:00,
2013-11-22 20:50:00,-4.3,-8.1,30.96,NNW,331,3.0,6.0,83,0.00,,CLR,0.00,0.00,VWS V14.00,2013-11-23 02:50:00,
2013-11-22 20:55:00,-4.4,-8.2,30.96,NNW,331,4.0,6.0,83,0.00,,CLR,0.00,0.00,VWS V14.00,2013-11-23 02:55:00,
2013-11-22 21:00:00,-4.3,-8.1,30.97,NNW,331,4.0,4.0,83,0.00,,CLR,0.00,0.00,VWS V14.00,2013-11-23 03:00:00,
2013-11-22 21:05:00,-4.4,-8.2,30.97,NNW,331,4.0,5.0,83,0.00,,CLR,0.00,0.00,VWS V14.00,2013-11-23 03:05:00,
2013-11-22 21:10:00,-3.6,-7.2,30.97,NNW,330,5.0,6.0,84,0.00,,CLR,0.00,0.00,VWS V14.00,2013-11-23 03:10:00,
2013-11-22 21:15:00,-3.2,-6.8,30.97,NNW,330,4.0,6.0,84,0.00,,CLR,0.00,0.00,VWS V14.00,2013-11-23 03:15:00,
2013-11-22 21:20:00,-2.8,-6.4,30.97,NNW,329,6.0,7.0,84,0.00,,CLR,0.00,0.00,VWS V14.00,2013-11-23 03:20:00,
2013-11-22 21:25:00,-2.8,-6.7,30.98,NNW,329,4.0,7.0,83,0.00,,CLR,0.00,0.00,VWS V14.00,2013-11-23 03:25:00,
2013-11-22 21:30:00,-2.7,-6.6,30.98,NNW,329,6.0,6.0,83,0.00,,CLR,0.00,0.00,VWS V14.00,2013-11-23 03:30:00,
2013-11-22 21:35:00,-2.7,-6.6,30.98,NNW,329,6.0,6.0,83,0.00,,CLR,0.00,0.00,VWS V14.00,2013-11-23 03:35:00,
2013-11-22 21:40:00,-3.7,-8.1,30.98,NNW,331,6.0,7.0,81,0.00,,CLR,0.00,0.00,VWS V14.00,2013-11-23 03:40:00,
2013-11-22 21:45:00,-4.4,-8.7,30.97,NNW,342,7.0,8.0,81,0.00,,CLR,0.00,0.00,VWS V14.00,2013-11-23 03:45:00,
2013-11-22 21:50:00,-4.6,-8.7,30.98,NNW,343,7.0,8.0,82,0.00,,CLR,0.00,0.00,VWS V14.00,2013-11-23 03:50:00,
2013-11-22 21:55:00,-4.9,-9.0,30.98,NNW,343,7.0,8.0,82,0.00,,CLR,0.00,0.00,VWS V14.00,2013-11-23 03:55:00,
2013-11-22 22:00:00,-4.9,-8.7,30.99,NNW,344,5.0,6.0,83,0.00,,CLR,0.00,0.00,VWS V14.00,2013-11-23 04:00:00,
2013-11-22 22:05:00,-4.6,-8.2,30.99,North,349,6.0,7.0,84,0.00,,CLR,0.00,0.00,VWS V14.00,2013-11-23 04:05:00,
2013-11-22 22:10:00,-4.0,-7.6,30.99,North,355,5.0,7.0,84,0.00,,CLR,0.00,0.00,VWS V14.00,2013-11-23 04:10:00,
2013-11-22 22:15:00,-3.7,-7.3,30.99,North,355,5.0,7.0,84,0.00,,CLR,0.00,0.00,VWS V14.00,2013-11-23 04:15:00,
2013-11-22 22:20:00,-3.6,-7.2,30.99,North,355,8.0,9.0,84,0.00,,CLR,0.00,0.00,VWS V14.00,2013-11-23 04:20:00,
2013-11-22 22:25:00,-3.6,-7.5,30.99,North,355,8.0,9.0,83,0.00,,CLR,0.00,0.00,VWS V14.00,2013-11-23 04:25:00,
2013-11-22 22:30:00,-3.7,-7.6,30.99,North,360,6.0,8.0,83,0.00,,CLR,0.00,0.00,VWS V14.00,2013-11-23 04:30:00,
2013-11-22 22:35:00,-3.7,-7.6,30.99,North,360,5.0,8.0,83,0.00,,CLR,0.00,0.00,VWS V14.00,2013-11-23 04:35:00,
2013-11-22 22:40:00,-3.9,-8.0,31.00,North,355,7.0,8.0,82,0.00,,CLR,0.00,0.00,VWS V14.00,2013-11-23 04:40:00,
2013-11-22 22:45:00,-4.1,-8.2,31.00,North,355,5.0,8.0,82,0.00,,CLR,0.00,0.00,VWS V14.00,2013-11-23 04:45:00,
2013-11-22 22:51:00,-4.5,-8.6,31.00,North,355,8.0,8.0,82,0.00,,CLR,0.00,0.00,VWS V14.00,2013-11-23 04:51:00,
2013-11-22 22:56:00,-4.5,-8.6,31.00,North,355,8.0,8.0,82,0.00,,CLR,0.00,0.00,VWS V14.00,2013-11-23 04:56:00,
2013-11-22 23:01:00,-4.9,-9.0,31.00,North,355,7.0,8.0,82,0.00,,CLR,0.00,0.00,VWS V14.00,2013-11-23 05:01:00,
2013-11-22 23:02:00,-4.9,-9.0,31.00,North,355,8.0,8.0,82,0.00,,CLR,0.00,0.00,VWS V14.00,2013-11-23 05:02:00,
2013-11-22 23:03:00,-4.9,-9.0,31.00,North,355,7.0,9.0,82,0.00,,CLR,0.00,0.00,VWS V14.00,2013-11-23 05:03:00,
2013-11-22 23:08:00,-4.6,-8.4,30.99,North,355,9.0,10.0,83,0.00,,CLR,0.00,0.00,VWS V14.00,2013-11-23 05:08:00,
2013-11-22 23:10:00,-4.6,-8.4,30.99,North,355,8.0,10.0,83,0.00,,CLR,0.00,0.00,VWS V14.00,2013-11-23 05:10:00,
2013-11-22 23:15:00,-4.6,-8.7,31.00,North,355,7.0,10.0,82,0.00,,CLR,0.00,0.00,VWS V14.00,2013-11-23 05:15:00,
2013-11-22 23:18:00,-4.7,-8.8,31.00,North,355,7.0,10.0,82,0.00,,CLR,0.00,0.00,VWS V14.00,2013-11-23 05:18:00,
2013-11-22 23:23:00,-4.7,-8.8,31.00,North,355,5.0,10.0,82,0.00,,CLR,0.00,0.00,VWS V14.00,2013-11-23 05:23:00,
2013-11-22 23:28:00,-4.8,-8.9,31.00,North,355,7.0,10.0,82,0.00,,CLR,0.00,0.00,VWS V14.00,2013-11-23 05:28:00,
2013-11-22 23:33:00,-5.0,-9.1,31.00,North,355,6.0,7.0,82,0.00,,CLR,0.00,0.00,VWS V14.00,2013-11-23 05:33:00,
2013-11-22 23:38:00,-5.4,-9.5,31.00,North,355,6.0,8.0,82,0.00,,CLR,0.00,0.00,VWS V14.00,2013-11-23 05:38:00,
2013-11-22 23:43:00,-5.4,-9.5,31.00,North,360,6.0,9.0,82,0.00,,CLR,0.00,0.00,VWS V14.00,2013-11-23 05:43:00,
2013-11-22 23:48:00,-5.0,-8.8,31.00,North,5,7.0,9.0,83,0.00,,CLR,0.00,0.00,VWS V14.00,2013-11-23 05:48:00,
2013-11-22 23:53:00,-4.9,-8.7,31.01,North,360,6.0,9.0,83,0.00,,CLR,0.00,0.00,VWS V14.00,2013-11-23 05:53:00,
2013-11-22 23:58:00,-4.9,-8.7,31.01,North,360,7.0,9.0,83,0.00,,CLR,0.00,0.00,VWS V14.00,2013-11-23 05:58:00,